Time;durP1;ratioP1;P1;durP2;ratioP2;P2;SDS_P1;SDS_P2;PMS_P1;PMS_P2;Temp;Humidity;BMP_temperature;BMP_pressure;BME280_temperature;BME280_humidity;BME280_pressure;Samples;Min_cycle;Max_cycle;Signal;HPM_P1;HPM_P2
2021/12/09 00:00:59;;;;;;;18.63;9.25;;;;;;;;;;5126664;27;20046;-78
2021/12/09 00:03:28;;;;;;;19.52;9.80;;;;;;;;;;5106556;27;20087;-79
2021/12/09 00:05:55;;;;;;;18.73;10.13;;;;;;;;;;5127034;27;20051;-80
2021/12/09 00:08:22;;;;;;;21.35;11.10;;;;;;;;;;5132360;27;20413;-79
2021/12/09 00:10:48;;;;;;;22.20;10.85;;;;;;;;;;5108990;27;20081;-79
2021/12/09 00:13:15;;;;;;;19.52;9.75;;;;;;;;;;5122900;27;20110;-78
2021/12/09 00:15:41;;;;;;;17.15;9.32;;;;;;;;;;5107656;27;20060;-77
2021/12/09 00:18:07;;;;;;;24.35;11.18;;;;;;;;;;5105724;27;20047;-79
2021/12/09 00:20:33;;;;;;;26.95;11.98;;;;;;;;;;5150054;27;20103;-79
2021/12/09 00:22:59;;;;;;;19.60;10.90;;;;;;;;;;5134809;27;20059;-79
2021/12/09 00:25:25;;;;;;;19.55;9.48;;;;;;;;;;5132371;27;20046;-79
2021/12/09 00:27:52;;;;;;;17.83;10.52;;;;;;;;;;5125165;27;20066;-80
2021/12/09 00:30:18;;;;;;;19.80;10.63;;;;;;;;;;5123851;27;20088;-80
2021/12/09 00:32:44;;;;;;;26.15;10.82;;;;;;;;;;5122619;27;20408;-78
2021/12/09 00:35:14;;;;;;;20.73;10.95;;;;;;;;;;5122892;27;21607;-79
2021/12/09 00:37:52;;;;;;;21.33;11.23;;;;;;;;;;5105623;27;20100;-79
2021/12/09 00:40:18;;;;;;;20.63;10.52;;;;;;;;;;5134448;27;20045;-80
2021/12/09 00:42:45;;;;;;;21.35;11.50;;;;;;;;;;5123165;27;20051;-79
2021/12/09 00:45:11;;;;;;;21.15;11.82;;;;;;;;;;5122045;27;20138;-78
2021/12/09 00:47:37;;;;;;;23.63;11.65;;;;;;;;;;5124555;27;20043;-79
2021/12/09 00:50:04;;;;;;;22.77;11.63;;;;;;;;;;5092308;27;20039;-80
2021/12/09 00:52:30;;;;;;;26.90;12.27;;;;;;;;;;5106065;27;20042;-79
2021/12/09 00:54:57;;;;;;;27.88;13.90;;;;;;;;;;5087473;27;20459;-79
2021/12/09 00:57:24;;;;;;;22.52;11.98;;;;;;;;;;5081320;28;20132;-79
2021/12/09 00:59:50;;;;;;;23.45;12.73;;;;;;;;;;5085589;28;20039;-81
2021/12/09 01:02:16;;;;;;;24.00;12.45;;;;;;;;;;5097958;27;20138;-78
2021/12/09 01:04:44;;;;;;;18.50;11.38;;;;;;;;;;5099856;27;20126;-78
2021/12/09 01:07:10;;;;;;;21.80;11.95;;;;;;;;;;5103087;28;20051;-79
2021/12/09 01:09:36;;;;;;;21.88;12.30;;;;;;;;;;5083949;28;20390;-79
2021/12/09 01:12:04;;;;;;;21.52;12.68;;;;;;;;;;5084043;28;20079;-79
2021/12/09 01:14:30;;;;;;;26.08;13.27;;;;;;;;;;5084123;28;20180;-79
2021/12/09 01:16:56;;;;;;;23.98;12.65;;;;;;;;;;5083435;28;20078;-79
2021/12/09 01:19:22;;;;;;;28.67;13.82;;;;;;;;;;5099464;28;20084;-79
2021/12/09 01:21:48;;;;;;;23.40;14.65;;;;;;;;;;5090107;28;20043;-79
2021/12/09 01:24:15;;;;;;;23.13;13.77;;;;;;;;;;5074602;27;20076;-79
2021/12/09 01:26:41;;;;;;;24.40;13.13;;;;;;;;;;5103389;27;20136;-79
2021/12/09 01:29:16;;;;;;;24.67;13.93;;;;;;;;;;5076284;28;20050;-79
2021/12/09 01:31:51;;;;;;;22.90;13.88;;;;;;;;;;5089546;27;20047;-79
2021/12/09 01:34:19;;;;;;;22.42;13.75;;;;;;;;;;5109931;27;20096;-78
2021/12/09 01:36:48;;;;;;;28.63;15.40;;;;;;;;;;5111335;27;20051;-79
2021/12/09 01:39:14;;;;;;;28.67;14.90;;;;;;;;;;5088051;27;20048;-78
2021/12/09 01:41:40;;;;;;;22.45;14.02;;;;;;;;;;5088392;27;20642;-77
2021/12/09 01:44:07;;;;;;;22.52;14.30;;;;;;;;;;5109514;27;20047;-77
2021/12/09 01:46:33;;;;;;;24.60;14.98;;;;;;;;;;5089576;28;20495;-77
2021/12/09 01:48:59;;;;;;;27.33;14.77;;;;;;;;;;5091074;28;20478;-77
2021/12/09 01:51:25;;;;;;;28.15;15.25;;;;;;;;;;5105793;27;20159;-78
2021/12/09 01:53:52;;;;;;;27.27;15.93;;;;;;;;;;5089636;27;20066;-78
2021/12/09 01:56:21;;;;;;;32.35;15.82;;;;;;;;;;5090535;28;20043;-77
2021/12/09 01:58:51;;;;;;;27.63;15.65;;;;;;;;;;5094268;28;20047;-77
2021/12/09 02:01:18;;;;;;;25.77;15.90;;;;;;;;;;5108029;27;20255;-77
2021/12/09 02:03:44;;;;;;;20.65;15.00;;;;;;;;;;5091454;27;20040;-78
2021/12/09 02:06:10;;;;;;;31.85;16.52;;;;;;;;;;5110216;27;20616;-78
2021/12/09 02:08:36;;;;;;;30.67;16.65;;;;;;;;;;5110096;27;20035;-77
2021/12/09 02:11:02;;;;;;;32.10;17.75;;;;;;;;;;5091353;27;20056;-80
2021/12/09 02:13:28;;;;;;;33.05;16.85;;;;;;;;;;5103059;27;20455;-78
2021/12/09 02:15:56;;;;;;;29.42;16.67;;;;;;;;;;5103314;27;20127;-77
2021/12/09 02:18:22;;;;;;;32.05;16.85;;;;;;;;;;5104331;27;20051;-78
2021/12/09 02:21:05;;;;;;;34.17;17.45;;;;;;;;;;5109446;27;20609;-78
2021/12/09 02:23:32;;;;;;;26.43;16.60;;;;;;;;;;5108220;27;20502;-78
2021/12/09 02:25:58;;;;;;;34.03;17.23;;;;;;;;;;5094656;28;20784;-78
2021/12/09 02:28:25;;;;;;;30.80;17.67;;;;;;;;;;5093563;27;20051;-78
2021/12/09 02:30:51;;;;;;;34.30;17.40;;;;;;;;;;5092462;28;20074;-78
2021/12/09 02:33:17;;;;;;;33.42;20.17;;;;;;;;;;5109302;27;20394;-78
2021/12/09 02:35:43;;;;;;;33.63;17.90;;;;;;;;;;5091670;28;20371;-78
2021/12/09 02:38:10;;;;;;;37.05;19.02;;;;;;;;;;5092233;28;20548;-77
2021/12/09 02:40:36;;;;;;;36.72;19.45;;;;;;;;;;5091221;28;20047;-77
2021/12/09 02:43:04;;;;;;;29.38;18.42;;;;;;;;;;5108589;27;20075;-77
2021/12/09 02:45:30;;;;;;;38.08;18.77;;;;;;;;;;5088284;27;20044;-78
2021/12/09 02:47:56;;;;;;;34.25;18.33;;;;;;;;;;5107576;27;20059;-78
2021/12/09 02:50:23;;;;;;;30.52;17.25;;;;;;;;;;5090948;27;20530;-78
2021/12/09 02:52:50;;;;;;;40.50;20.85;;;;;;;;;;5106928;27;20039;-78
2021/12/09 02:55:16;;;;;;;33.17;19.10;;;;;;;;;;5111997;27;20062;-77
2021/12/09 02:57:42;;;;;;;38.22;19.05;;;;;;;;;;5105139;27;20113;-78
2021/12/09 03:00:10;;;;;;;36.55;19.38;;;;;;;;;;5105689;27;20118;-77
2021/12/09 03:02:36;;;;;;;35.50;19.13;;;;;;;;;;5120355;27;20110;-78
2021/12/09 03:05:04;;;;;;;36.95;19.30;;;;;;;;;;5109683;27;20508;-78
2021/12/09 03:07:36;;;;;;;32.35;18.08;;;;;;;;;;5096182;27;20443;-78
2021/12/09 03:10:21;;;;;;;33.88;20.13;;;;;;;;;;5122334;27;20052;-78
2021/12/09 03:12:48;;;;;;;34.35;19.48;;;;;;;;;;5096034;27;20109;-78
2021/12/09 03:15:15;;;;;;;32.83;19.55;;;;;;;;;;5120985;27;20031;-78
2021/12/09 03:17:42;;;;;;;34.83;19.40;;;;;;;;;;5084166;27;20568;-78
2021/12/09 03:20:09;;;;;;;40.08;21.17;;;;;;;;;;5101361;27;20047;-78
2021/12/09 03:22:36;;;;;;;35.58;19.58;;;;;;;;;;5083319;27;20096;-78
2021/12/09 03:25:03;;;;;;;36.38;19.85;;;;;;;;;;5087276;27;20391;-78
2021/12/09 03:27:29;;;;;;;29.88;19.88;;;;;;;;;;5103010;27;20039;-78
2021/12/09 03:29:55;;;;;;;36.05;20.02;;;;;;;;;;5073001;27;20096;-78
2021/12/09 03:32:23;;;;;;;32.40;19.13;;;;;;;;;;5086848;28;20048;-78
2021/12/09 03:34:49;;;;;;;38.63;20.92;;;;;;;;;;5101650;27;20066;-77
2021/12/09 03:37:17;;;;;;;32.55;19.95;;;;;;;;;;5099012;27;20048;-78
2021/12/09 03:39:44;;;;;;;40.13;20.95;;;;;;;;;;5094185;27;20047;-78
2021/12/09 03:42:11;;;;;;;32.53;19.33;;;;;;;;;;5084849;27;20048;-78
2021/12/09 03:44:38;;;;;;;40.20;19.52;;;;;;;;;;5100346;27;20095;-78
2021/12/09 03:47:05;;;;;;;38.38;20.98;;;;;;;;;;5098001;27;20059;-78
2021/12/09 03:49:31;;;;;;;37.22;21.05;;;;;;;;;;5102435;27;20051;-78
2021/12/09 03:51:57;;;;;;;37.00;20.52;;;;;;;;;;5082424;27;20498;-78
2021/12/09 03:54:24;;;;;;;36.60;20.08;;;;;;;;;;5112023;27;20517;-78
2021/12/09 03:56:51;;;;;;;39.15;20.30;;;;;;;;;;5107802;27;20048;-78
2021/12/09 03:59:18;;;;;;;45.58;23.20;;;;;;;;;;5103748;27;20047;-77
2021/12/09 04:01:45;;;;;;;37.25;20.30;;;;;;;;;;5105079;27;20036;-78
2021/12/09 04:04:11;;;;;;;36.63;20.25;;;;;;;;;;5107712;27;20394;-78
2021/12/09 04:06:37;;;;;;;33.97;20.38;;;;;;;;;;5091740;28;20444;-78
2021/12/09 04:09:05;;;;;;;41.58;21.38;;;;;;;;;;5107431;28;20600;-78
2021/12/09 04:11:31;;;;;;;37.30;20.85;;;;;;;;;;5087964;28;20421;-78
2021/12/09 04:13:57;;;;;;;39.92;22.17;;;;;;;;;;5090385;28;20457;-78
2021/12/09 04:16:24;;;;;;;33.55;20.48;;;;;;;;;;5108073;28;20169;-78
2021/12/09 04:18:50;;;;;;;37.15;20.85;;;;;;;;;;5089641;28;20360;-78
2021/12/09 04:21:16;;;;;;;36.03;20.30;;;;;;;;;;5108978;28;20123;-78
2021/12/09 04:23:42;;;;;;;36.17;20.60;;;;;;;;;;5107537;28;20379;-78
2021/12/09 04:26:09;;;;;;;43.90;21.58;;;;;;;;;;5103447;27;20077;-78
2021/12/09 04:28:36;;;;;;;34.72;20.55;;;;;;;;;;5084915;27;20044;-78
2021/12/09 04:31:03;;;;;;;35.35;21.58;;;;;;;;;;5098884;27;20169;-78
2021/12/09 04:33:32;;;;;;;40.10;21.23;;;;;;;;;;5085053;28;20044;-78
2021/12/09 04:35:59;;;;;;;35.70;19.83;;;;;;;;;;5083887;27;20111;-78
2021/12/09 04:38:25;;;;;;;35.70;21.15;;;;;;;;;;5098724;27;20096;-78
2021/12/09 04:40:51;;;;;;;40.00;21.10;;;;;;;;;;5084463;28;20714;-78
2021/12/09 04:43:18;;;;;;;36.22;20.25;;;;;;;;;;5100264;27;20081;-78
2021/12/09 04:45:44;;;;;;;38.38;21.52;;;;;;;;;;5086021;28;20048;-78
2021/12/09 04:48:10;;;;;;;39.50;21.20;;;;;;;;;;5100270;27;20036;-79
2021/12/09 04:50:37;;;;;;;35.67;21.48;;;;;;;;;;5068642;28;20075;-78
2021/12/09 04:53:04;;;;;;;34.08;20.80;;;;;;;;;;5088754;27;20215;-78
2021/12/09 04:55:30;;;;;;;34.58;20.60;;;;;;;;;;5099587;27;20050;-78
2021/12/09 04:57:56;;;;;;;42.80;22.08;;;;;;;;;;5103227;27;20178;-78
2021/12/09 05:00:25;;;;;;;37.65;20.27;;;;;;;;;;5088200;27;20051;-78
2021/12/09 05:05:17;;;;;;;36.10;20.30;;;;;;;;;;5105009;27;20048;-77
2021/12/09 05:07:44;;;;;;;44.75;21.25;;;;;;;;;;5105011;27;20047;-78
2021/12/09 05:10:10;;;;;;;41.95;20.95;;;;;;;;;;5087862;28;20099;-78
2021/12/09 05:12:36;;;;;;;40.75;21.50;;;;;;;;;;5105731;28;20080;-78
2021/12/09 05:15:02;;;;;;;36.95;20.80;;;;;;;;;;5089236;28;20478;-78
2021/12/09 05:17:28;;;;;;;35.72;21.90;;;;;;;;;;5101537;28;20104;-78
2021/12/09 05:19:54;;;;;;;37.35;20.63;;;;;;;;;;5102550;28;20625;-78
2021/12/09 05:22:20;;;;;;;39.97;19.65;;;;;;;;;;5087282;28;20048;-78
2021/12/09 05:24:49;;;;;;;39.72;21.48;;;;;;;;;;5102019;28;20160;-78
2021/12/09 05:27:16;;;;;;;43.95;21.20;;;;;;;;;;5103804;28;20044;-79
2021/12/09 05:29:44;;;;;;;39.63;19.98;;;;;;;;;;5076614;28;20043;-79
2021/12/09 05:32:11;;;;;;;32.72;20.00;;;;;;;;;;5089801;28;20070;-78
2021/12/09 05:34:42;;;;;;;31.52;19.45;;;;;;;;;;5108143;28;20830;-79
2021/12/09 05:37:09;;;;;;;42.70;21.50;;;;;;;;;;5087584;28;20047;-79
2021/12/09 05:39:37;;;;;;;41.50;20.65;;;;;;;;;;5104827;28;20182;-79
2021/12/09 05:42:03;;;;;;;37.53;21.52;;;;;;;;;;5104750;28;20529;-79
2021/12/09 05:44:30;;;;;;;37.20;22.83;;;;;;;;;;5090150;28;20360;-78
2021/12/09 05:46:56;;;;;;;35.60;20.40;;;;;;;;;;5089472;28;20048;-78
2021/12/09 05:49:22;;;;;;;41.75;21.25;;;;;;;;;;5104871;28;20405;-78
2021/12/09 05:51:48;;;;;;;38.75;21.42;;;;;;;;;;5083342;28;20505;-78
2021/12/09 05:54:15;;;;;;;37.08;20.90;;;;;;;;;;5111276;27;20566;-78
2021/12/09 05:56:41;;;;;;;42.03;20.52;;;;;;;;;;5110155;28;20062;-83
2021/12/09 05:59:10;;;;;;;42.63;21.98;;;;;;;;;;5107661;28;20096;-84
2021/12/09 06:01:38;;;;;;;35.53;20.55;;;;;;;;;;5122219;27;20039;-79
2021/12/09 06:04:05;;;;;;;45.83;22.65;;;;;;;;;;5125076;27;20050;-84
2021/12/09 06:06:31;;;;;;;36.08;20.67;;;;;;;;;;5128608;27;20038;-85
2021/12/09 06:08:58;;;;;;;39.67;21.52;;;;;;;;;;5131427;27;20420;-84
2021/12/09 06:11:24;;;;;;;41.70;23.13;;;;;;;;;;5112935;27;20070;-85
2021/12/09 06:13:50;;;;;;;34.25;20.02;;;;;;;;;;5130227;27;20454;-84
2021/12/09 06:16:16;;;;;;;41.78;20.98;;;;;;;;;;5126659;27;20047;-85
2021/12/09 06:18:42;;;;;;;49.50;22.08;;;;;;;;;;5132025;27;20050;-84
2021/12/09 06:21:09;;;;;;;41.88;21.88;;;;;;;;;;5111811;27;20069;-83
2021/12/09 06:23:35;;;;;;;42.53;22.65;;;;;;;;;;5129475;27;20035;-79
2021/12/09 06:26:01;;;;;;;38.22;22.63;;;;;;;;;;5122570;27;20447;-81
2021/12/09 06:28:27;;;;;;;39.00;21.63;;;;;;;;;;5108228;27;20043;-81
2021/12/09 06:30:53;;;;;;;34.20;21.63;;;;;;;;;;5095741;27;20058;-81
2021/12/09 06:33:19;;;;;;;39.35;21.38;;;;;;;;;;5122138;27;20071;-81
2021/12/09 06:35:45;;;;;;;44.30;22.17;;;;;;;;;;5142499;27;20031;-81
2021/12/09 06:38:15;;;;;;;45.42;23.17;;;;;;;;;;5107002;27;20047;-81
2021/12/09 06:40:41;;;;;;;48.67;24.35;;;;;;;;;;5134784;27;20102;-81
2021/12/09 06:43:07;;;;;;;45.70;22.48;;;;;;;;;;5108211;28;20039;-80
2021/12/09 06:45:34;;;;;;;41.80;23.40;;;;;;;;;;5128880;27;20105;-81
2021/12/09 06:48:00;;;;;;;43.40;22.70;;;;;;;;;;5109667;27;20125;-80
2021/12/09 06:50:26;;;;;;;45.95;24.15;;;;;;;;;;5129656;27;20125;-80
2021/12/09 06:52:53;;;;;;;41.55;22.20;;;;;;;;;;5097156;27;20201;-81
2021/12/09 06:55:19;;;;;;;35.58;22.38;;;;;;;;;;5079206;28;20515;-80
2021/12/09 06:57:46;;;;;;;41.55;22.27;;;;;;;;;;5083726;28;20109;-80
2021/12/09 07:00:14;;;;;;;46.47;22.55;;;;;;;;;;5116754;27;20054;-80
2021/12/09 07:02:40;;;;;;;41.35;22.25;;;;;;;;;;5134937;27;20035;-81
2021/12/09 07:05:08;;;;;;;45.97;23.23;;;;;;;;;;5105142;27;20047;-80
2021/12/09 07:07:34;;;;;;;58.47;23.40;;;;;;;;;;5099203;28;20048;-80
2021/12/09 07:10:00;;;;;;;42.92;22.52;;;;;;;;;;5080761;28;20051;-80
2021/12/09 07:12:27;;;;;;;42.25;23.63;;;;;;;;;;5096709;28;20548;-80
2021/12/09 07:14:53;;;;;;;47.05;22.42;;;;;;;;;;5099040;28;20138;-80
2021/12/09 07:17:20;;;;;;;45.30;23.80;;;;;;;;;;5100553;28;20093;-81
2021/12/09 07:19:46;;;;;;;41.58;23.65;;;;;;;;;;5100924;28;20386;-81
2021/12/09 07:22:12;;;;;;;43.65;23.05;;;;;;;;;;5087740;28;20048;-81
2021/12/09 07:24:38;;;;;;;42.47;21.33;;;;;;;;;;5090182;28;20059;-81
2021/12/09 07:27:04;;;;;;;45.97;22.83;;;;;;;;;;5104704;28;20051;-81
2021/12/09 07:29:32;;;;;;;46.67;23.95;;;;;;;;;;5085651;28;20097;-81
2021/12/09 07:31:58;;;;;;;39.55;21.25;;;;;;;;;;5102311;28;20063;-81
2021/12/09 07:34:24;;;;;;;39.67;21.83;;;;;;;;;;5107467;28;20428;-81
2021/12/09 07:36:50;;;;;;;39.75;21.02;;;;;;;;;;5108258;28;20077;-81
2021/12/09 07:39:16;;;;;;;42.33;21.48;;;;;;;;;;5084993;28;20062;-80
2021/12/09 07:41:42;;;;;;;43.55;21.52;;;;;;;;;;5089068;28;20044;-82
2021/12/09 07:44:08;;;;;;;49.67;22.42;;;;;;;;;;5089275;27;20058;-81
2021/12/09 07:46:35;;;;;;;42.00;20.52;;;;;;;;;;5108291;27;20488;-81
2021/12/09 07:49:02;;;;;;;35.17;20.58;;;;;;;;;;5070731;28;20746;-84
2021/12/09 07:51:28;;;;;;;42.63;20.95;;;;;;;;;;5103171;27;20134;-78
2021/12/09 07:53:54;;;;;;;41.75;22.67;;;;;;;;;;5105994;28;20104;-82
2021/12/09 07:56:20;;;;;;;63.63;33.25;;;;;;;;;;5087424;28;20137;-80
2021/12/09 07:58:46;;;;;;;44.22;21.35;;;;;;;;;;5108446;27;20043;-80
2021/12/09 08:01:12;;;;;;;38.05;20.88;;;;;;;;;;5103645;27;20089;-81
2021/12/09 08:03:38;;;;;;;38.00;21.38;;;;;;;;;;5090899;28;20072;-80
2021/12/09 08:06:04;;;;;;;44.72;21.25;;;;;;;;;;5104556;28;20475;-81
2021/12/09 08:08:31;;;;;;;40.30;20.60;;;;;;;;;;5104307;28;20547;-81
2021/12/09 08:10:57;;;;;;;41.28;20.75;;;;;;;;;;5103438;28;20043;-81
2021/12/09 08:13:23;;;;;;;37.67;22.00;;;;;;;;;;5085180;28;20100;-81
2021/12/09 08:15:51;;;;;;;44.00;21.95;;;;;;;;;;5107791;28;20443;-82
2021/12/09 08:20:51;;;;;;;39.92;20.67;;;;;;;;;;5107300;28;20039;-81
2021/12/09 08:23:18;;;;;;;38.30;21.80;;;;;;;;;;5087154;28;20039;-81
2021/12/09 08:25:45;;;;;;;40.08;20.95;;;;;;;;;;5090143;28;20475;-81
2021/12/09 08:28:11;;;;;;;39.33;21.92;;;;;;;;;;5088425;28;20130;-81
2021/12/09 08:30:38;;;;;;;45.03;21.33;;;;;;;;;;5086726;28;20050;-81
2021/12/09 08:33:05;;;;;;;39.55;20.05;;;;;;;;;;5079928;28;20051;-81
2021/12/09 08:35:32;;;;;;;41.75;21.00;;;;;;;;;;5080035;28;20048;-81
2021/12/09 08:37:58;;;;;;;42.50;20.50;;;;;;;;;;5105181;27;20471;-81
2021/12/09 08:40:25;;;;;;;43.28;21.00;;;;;;;;;;5071846;28;20062;-81
2021/12/09 08:42:51;;;;;;;34.35;19.42;;;;;;;;;;5105353;28;20035;-81
2021/12/09 08:45:18;;;;;;;38.05;20.35;;;;;;;;;;5105861;28;20062;-81
2021/12/09 08:47:44;;;;;;;39.13;18.80;;;;;;;;;;5102564;27;20112;-81
2021/12/09 08:50:12;;;;;;;32.58;18.73;;;;;;;;;;5087109;27;20054;-81
2021/12/09 08:52:38;;;;;;;34.50;19.65;;;;;;;;;;5085355;28;20043;-81
2021/12/09 08:55:04;;;;;;;31.48;18.83;;;;;;;;;;5100957;28;20052;-79
2021/12/09 08:57:36;;;;;;;32.42;18.25;;;;;;;;;;5103380;28;20043;-81
2021/12/09 09:00:03;;;;;;;34.83;17.48;;;;;;;;;;5117043;27;20322;-81
2021/12/09 09:02:29;;;;;;;28.52;16.25;;;;;;;;;;5102065;27;20039;-80
2021/12/09 09:04:57;;;;;;;28.10;15.68;;;;;;;;;;5104050;28;20158;-81
2021/12/09 09:07:23;;;;;;;26.92;14.38;;;;;;;;;;5102463;28;21662;-83
2021/12/09 09:09:49;;;;;;;29.20;13.85;;;;;;;;;;5084924;28;20136;-82
2021/12/09 09:12:17;;;;;;;25.58;13.18;;;;;;;;;;5095713;28;20227;-82
2021/12/09 09:14:43;;;;;;;19.33;12.15;;;;;;;;;;5086518;28;20035;-82
2021/12/09 09:17:09;;;;;;;27.38;12.40;;;;;;;;;;5086422;28;20046;-82
2021/12/09 09:19:35;;;;;;;24.83;12.10;;;;;;;;;;5083318;28;20475;-80
2021/12/09 09:22:01;;;;;;;24.52;11.45;;;;;;;;;;5103035;28;20174;-80
2021/12/09 09:24:27;;;;;;;20.42;11.95;;;;;;;;;;5089140;28;20047;-81
2021/12/09 09:26:53;;;;;;;26.38;11.82;;;;;;;;;;5072793;28;20040;-81
2021/12/09 09:29:20;;;;;;;23.25;11.23;;;;;;;;;;5104110;28;20123;-83
2021/12/09 09:31:46;;;;;;;;;;;;;;;;;;5103063;28;20046;-81
2021/12/09 09:34:12;;;;;;;;;;;;;;;;;;5090823;28;20018;-83
2021/12/09 09:36:39;;;;;;;;;;;;;;;;;;5099255;28;19928;-80
2021/12/09 09:39:17;;;;;;;;;;;;;;;;;;5089084;28;19916;-84
2021/12/09 09:41:43;;;;;;;;;;;;;;;;;;5106069;27;19928;-83
2021/12/09 09:44:15;;;;;;;;;;;;;;;;;;5111774;27;20374;-82
2021/12/09 09:46:41;;;;;;;;;;;;;;;;;;5094960;27;20279;-81
2021/12/09 09:49:07;;;;;;;;;;;;;;;;;;5110116;27;19931;-80
2021/12/09 09:51:33;;;;;;;;;;;;;;;;;;5111345;27;19927;-82
2021/12/09 09:53:59;;;;;;;;;;;;;;;;;;5108767;27;19963;-84
2021/12/09 09:56:25;;;;;;;;;;;;;;;;;;5137556;27;20316;-82
2021/12/09 09:58:51;;;;;;;;;;;;;;;;;;5092328;28;20002;-79
2021/12/09 10:01:17;;;;;;;;;;;;;;;;;;5104924;27;19931;-79
2021/12/09 10:03:45;;;;;;;;;;;;;;;;;;5107882;27;20388;-80
2021/12/09 10:06:11;;;;;;;;;;;;;;;;;;5094605;28;19923;-80
2021/12/09 10:08:37;;;;;;;;;;;;;;;;;;5093488;27;19928;-81
2021/12/09 10:11:03;;;;;;;;;;;;;;;;;;5109801;27;19927;-82
2021/12/09 10:13:29;;;;;;;;;;;;;;;;;;5109837;27;19927;-82
2021/12/09 10:15:55;;;;;;;;;;;;;;;;;;5094266;27;19919;-83
2021/12/09 10:18:21;;;;;;;;;;;;;;;;;;5094620;27;19923;-81
2021/12/09 10:20:47;;;;;;;;;;;;;;;;;;5093673;27;20347;-81
2021/12/09 10:23:13;;;;;;;;;;;;;;;;;;5094332;28;19946;-83
2021/12/09 10:25:39;;;;;;;;;;;;;;;;;;5093992;28;19924;-83
2021/12/09 10:28:11;;;;;;;;;;;;;;;;;;5094391;28;19919;-82
2021/12/09 10:30:39;;;;;;;18.20;9.50;;;;;;;;;;5111066;27;19945;-81
2021/12/09 10:33:06;;;;;;;21.95;9.93;;;;;;;;;;5093670;28;20437;-82
2021/12/09 10:35:32;;;;;;;18.00;10.27;;;;;;;;;;5094005;28;20446;-81
2021/12/09 10:38:02;;;;;;;25.60;11.45;;;;;;;;;;5094867;28;20126;-82
2021/12/09 10:40:30;;;;;;;22.60;11.20;;;;;;;;;;5110030;27;20075;-82
2021/12/09 10:43:01;;;;;;;22.60;11.25;;;;;;;;;;5112479;27;20048;-81
2021/12/09 10:45:29;;;;;;;19.10;11.40;;;;;;;;;;5093539;28;20082;-80
2021/12/09 10:48:03;;;;;;;26.80;12.85;;;;;;;;;;5109137;27;20142;-81
2021/12/09 10:53:16;;;;;;;23.95;12.93;;;;;;;;;;5107792;27;20044;-81
2021/12/09 10:55:42;;;;;;;27.27;13.30;;;;;;;;;;5106751;27;20183;-81
2021/12/09 10:58:10;;;;;;;24.25;13.68;;;;;;;;;;5110212;28;20531;-79
2021/12/09 11:00:38;;;;;;;26.80;13.98;;;;;;;;;;5092478;28;20039;-79
2021/12/09 11:03:13;;;;;;;28.67;14.25;;;;;;;;;;5093474;28;20163;-79
2021/12/09 11:05:44;;;;;;;30.63;14.48;;;;;;;;;;5108909;27;20440;-79
2021/12/09 11:08:21;;;;;;;29.38;15.20;;;;;;;;;;5107842;27;20416;-80
2021/12/09 11:10:48;;;;;;;27.02;14.05;;;;;;;;;;5109228;27;20043;-79
2021/12/09 11:13:16;;;;;;;30.85;14.68;;;;;;;;;;5092308;27;20055;-83
2021/12/09 11:15:53;;;;;;;27.80;15.80;;;;;;;;;;5109079;27;20418;-75
2021/12/09 11:18:42;;;;;;;30.10;15.40;;;;;;;;;;5108483;28;20081;-77
2021/12/09 11:21:10;;;;;;;33.45;15.60;;;;;;;;;;5108957;27;20054;-80
2021/12/09 11:23:49;;;;;;;33.65;16.27;;;;;;;;;;5090726;28;20047;-80
2021/12/09 11:26:34;;;;;;;32.65;16.27;;;;;;;;;;5085109;28;20043;-83
2021/12/09 11:29:10;;;;;;;41.25;17.73;;;;;;;;;;5088690;28;20053;-81
2021/12/09 11:31:41;;;;;;;44.92;18.48;;;;;;;;;;5137078;27;20040;-81
2021/12/09 11:34:13;;;;;;;38.47;17.70;;;;;;;;;;5087242;28;20096;-79
2021/12/09 11:36:41;;;;;;;45.85;18.48;;;;;;;;;;5119714;27;20479;-81
2021/12/09 11:39:16;;;;;;;35.55;17.67;;;;;;;;;;5107792;28;20047;-80
2021/12/09 11:41:43;;;;;;;38.63;16.50;;;;;;;;;;5089802;28;20123;-80
2021/12/09 11:44:10;;;;;;;39.60;17.83;;;;;;;;;;5100737;27;20042;-80
2021/12/09 11:46:40;;;;;;;37.25;17.23;;;;;;;;;;5106229;28;20050;-81
2021/12/09 11:49:07;;;;;;;40.83;18.67;;;;;;;;;;5090997;28;20051;-81
2021/12/09 11:51:33;;;;;;;41.30;18.98;;;;;;;;;;5104629;27;20444;-79
2021/12/09 11:54:00;;;;;;;33.25;16.83;;;;;;;;;;5111542;27;20107;-83
2021/12/09 11:56:40;;;;;;;42.70;17.83;;;;;;;;;;5118489;27;20087;-81
2021/12/09 12:11:07;;;;;;;32.17;16.50;;;;;;;;;;5110566;27;20265;-84
2021/12/09 12:11:15;;;;;;;36.65;18.08;;;;;;;;;;5116086;27;20081;-81
2021/12/09 12:14:01;;;;;;;31.60;16.58;;;;;;;;;;5102620;27;20031;-82
2021/12/09 12:27:30;;;;;;;43.85;18.45;;;;;;;;;;5116248;27;20133;-82
2021/12/09 12:33:02;;;;;;;40.72;17.75;;;;;;;;;;5114525;27;20053;-82
2021/12/09 12:38:09;;;;;;;38.33;19.02;;;;;;;;;;5126664;27;20043;-82
2021/12/09 12:40:41;;;;;;;38.83;19.55;;;;;;;;;;5103313;27;20047;-81
2021/12/09 12:43:11;;;;;;;39.95;18.75;;;;;;;;;;5118657;27;20418;-81
2021/12/09 12:45:49;;;;;;;41.65;20.10;;;;;;;;;;5121764;27;20054;-82
2021/12/09 12:49:00;;;;;;;42.30;20.45;;;;;;;;;;5124037;27;20417;-81
2021/12/09 12:51:25;;;;;;;41.03;18.77;;;;;;;;;;5119244;27;20052;-82
2021/12/09 12:53:55;;;;;;;45.92;19.95;;;;;;;;;;5118722;27;20051;-80
2021/12/09 12:56:24;;;;;;;38.17;19.58;;;;;;;;;;5131813;27;20209;-82
2021/12/09 12:59:15;;;;;;;47.40;20.65;;;;;;;;;;5112552;27;20042;-82
2021/12/09 13:01:51;;;;;;;43.20;20.80;;;;;;;;;;5121119;27;20153;-82
2021/12/09 13:07:20;;;;;;;46.58;22.67;;;;;;;;;;5127973;27;20043;-82
2021/12/09 13:10:00;;;;;;;41.08;20.38;;;;;;;;;;5146124;27;20047;-82
2021/12/09 13:12:55;;;;;;;46.70;22.88;;;;;;;;;;5129167;27;20117;-83
2021/12/09 13:15:26;;;;;;;50.00;21.75;;;;;;;;;;5127805;27;20489;-83
2021/12/09 13:18:02;;;;;;;41.90;22.02;;;;;;;;;;5130631;27;20064;-81
2021/12/09 13:20:28;;;;;;;51.10;22.10;;;;;;;;;;5110546;27;20042;-82
2021/12/09 13:23:19;;;;;;;53.83;23.38;;;;;;;;;;5126199;27;20357;-83
2021/12/09 13:26:04;;;;;;;43.72;21.73;;;;;;;;;;5127644;27;20053;-83
2021/12/09 13:28:51;;;;;;;45.83;22.02;;;;;;;;;;5132732;27;20041;-83
2021/12/09 13:31:37;;;;;;;57.72;23.67;;;;;;;;;;5128126;27;20046;-82
2021/12/09 13:34:14;;;;;;;43.78;21.27;;;;;;;;;;5108104;27;20043;-82
2021/12/09 13:37:01;;;;;;;42.90;21.23;;;;;;;;;;5113496;27;20043;-82
2021/12/09 13:39:55;;;;;;;44.55;21.77;;;;;;;;;;5127212;27;20063;-83
2021/12/09 13:47:52;;;;;;;42.58;21.00;;;;;;;;;;5126073;27;20185;-82
2021/12/09 13:50:51;;;;;;;40.88;20.40;;;;;;;;;;5108647;27;20050;-82
2021/12/09 13:56:03;;;;;;;37.97;21.08;;;;;;;;;;5137251;27;20141;-81
2021/12/09 13:58:29;;;;;;;41.42;21.05;;;;;;;;;;5123722;27;20977;-80
2021/12/09 14:00:56;;;;;;;40.08;19.52;;;;;;;;;;5128162;27;20063;-81
2021/12/09 14:03:24;;;;;;;44.75;22.92;;;;;;;;;;5104580;27;20402;-81
2021/12/09 14:05:51;;;;;;;35.63;19.08;;;;;;;;;;5141044;27;20043;-82
2021/12/09 14:08:25;;;;;;;38.35;20.98;;;;;;;;;;5109726;27;20130;-86
2021/12/09 14:10:54;;;;;;;39.63;21.23;;;;;;;;;;5128827;27;20145;-82
2021/12/09 14:13:23;;;;;;;35.08;21.30;;;;;;;;;;5109815;27;20039;-80
2021/12/09 14:16:04;;;;;;;40.53;20.67;;;;;;;;;;5124261;27;20546;-77
2021/12/09 14:18:39;;;;;;;41.70;21.83;;;;;;;;;;5106148;27;20098;-82
2021/12/09 14:21:05;;;;;;;39.00;21.15;;;;;;;;;;5106968;27;20462;-83
2021/12/09 14:23:31;;;;;;;38.78;20.27;;;;;;;;;;5127531;27;20047;-84
2021/12/09 14:25:57;;;;;;;47.13;20.73;;;;;;;;;;5090336;27;20408;-82
2021/12/09 14:28:23;;;;;;;40.45;20.52;;;;;;;;;;5126385;27;20041;-82
2021/12/09 14:30:50;;;;;;;42.55;20.05;;;;;;;;;;5127847;27;20050;-83
2021/12/09 14:33:17;;;;;;;42.55;22.60;;;;;;;;;;5125785;27;20050;-83
2021/12/09 14:35:46;;;;;;;39.42;20.10;;;;;;;;;;5131577;27;20054;-81
2021/12/09 14:38:14;;;;;;;37.55;20.42;;;;;;;;;;5127833;27;20049;-81
2021/12/09 14:40:43;;;;;;;39.35;20.60;;;;;;;;;;5145821;27;20042;-84
2021/12/09 14:43:11;;;;;;;44.55;20.48;;;;;;;;;;5110979;27;20074;-84
2021/12/09 14:45:57;;;;;;;50.03;21.80;;;;;;;;;;5127188;27;20081;-85
2021/12/09 14:48:30;;;;;;;46.08;21.42;;;;;;;;;;5127551;27;20137;-85
2021/12/09 14:50:57;;;;;;;48.78;22.33;;;;;;;;;;5110601;27;20472;-84
2021/12/09 14:53:38;;;;;;;42.90;20.58;;;;;;;;;;5130806;27;20490;-85
2021/12/09 14:56:04;;;;;;;51.50;20.92;;;;;;;;;;5109947;27;20078;-86
2021/12/09 14:58:33;;;;;;;44.88;20.85;;;;;;;;;;5112449;27;20043;-85
2021/12/09 15:01:02;;;;;;;40.05;22.13;;;;;;;;;;5157321;27;20497;-84
2021/12/09 15:03:32;;;;;;;35.63;20.38;;;;;;;;;;5125739;27;20043;-84
2021/12/09 15:05:59;;;;;;;41.38;21.50;;;;;;;;;;5129709;27;20043;-81
2021/12/09 15:08:26;;;;;;;46.25;23.63;;;;;;;;;;5128161;27;20074;-83
2021/12/09 15:10:54;;;;;;;39.22;20.58;;;;;;;;;;5110042;27;20054;-82
2021/12/09 15:13:21;;;;;;;40.92;20.90;;;;;;;;;;5114951;27;20494;-83
2021/12/09 15:15:47;;;;;;;42.58;21.00;;;;;;;;;;5130707;27;20253;-83
2021/12/09 15:18:13;;;;;;;39.88;21.73;;;;;;;;;;5097467;27;20054;-83